createdAt,value
2019-05-20T00:00:06.641Z,98393.82
2019-05-20T00:02:35.764Z,98391.40
2019-05-20T00:05:05.214Z,98396.31
2019-05-20T00:07:34.427Z,98399.48
2019-05-20T00:10:03.850Z,98402.17
2019-05-20T00:12:33.063Z,98402.88
2019-05-20T00:15:02.280Z,98400.16
2019-05-20T00:17:31.443Z,98399.02
2019-05-20T00:20:00.591Z,98399.98
2019-05-20T00:22:29.753Z,98396.91
2019-05-20T00:24:59.043Z,98402.01
2019-05-20T00:27:28.260Z,98402.36
2019-05-20T00:29:57.453Z,98399.44
2019-05-20T00:32:40.314Z,98404.32
2019-05-20T00:34:57.477Z,98407.95
2019-05-20T00:37:26.714Z,98403.03
2019-05-20T00:39:55.878Z,98400.91
2019-05-20T00:42:24.982Z,98396.70
2019-05-20T00:44:54.697Z,98393.31
2019-05-20T00:47:23.887Z,98388.30
2019-05-20T00:49:53.006Z,98385.70
2019-05-20T00:52:22.259Z,98395.52
2019-05-20T00:54:51.402Z,98394.09
2019-05-20T00:57:20.523Z,98394.80
2019-05-20T00:59:49.705Z,98380.78
2019-05-20T01:02:19.258Z,98380.78
2019-05-20T01:04:48.409Z,98378.03
2019-05-20T01:07:17.562Z,98370.55
2019-05-20T01:09:46.720Z,98370.55
2019-05-20T01:12:15.883Z,98379.53
2019-05-20T01:14:45.157Z,98375.91
2019-05-20T01:17:14.713Z,98377.05
2019-05-20T01:19:43.879Z,98367.91
2019-05-20T01:22:13.059Z,98372.17
2019-05-20T01:24:42.513Z,98370.42
2019-05-20T01:27:11.862Z,98360.97
2019-05-20T01:29:40.965Z,98360.97
2019-05-20T01:32:10.174Z,98367.02
2019-05-20T01:34:39.580Z,98369.50
2019-05-20T01:37:08.706Z,98369.50
2019-05-20T01:39:37.837Z,98366.88
2019-05-20T01:42:07.173Z,98365.92
2019-05-20T01:44:36.304Z,98357.23
2019-05-20T01:47:07.005Z,98362.95
2019-05-20T01:49:36.104Z,98361.00
2019-05-20T01:52:05.289Z,98365.11
2019-05-20T01:54:34.484Z,98359.22
2019-05-20T01:57:03.648Z,98363.66
2019-05-20T01:59:32.855Z,98357.45
2019-05-20T02:02:02.041Z,98355.66
2019-05-20T02:04:31.141Z,98364.33
2019-05-20T02:07:00.454Z,98362.20
2019-05-20T02:09:29.596Z,98360.59
2019-05-20T02:11:58.757Z,98359.11
2019-05-20T02:14:30.188Z,98355.53
2019-05-20T02:17:02.509Z,98362.39
2019-05-20T02:19:30.311Z,98355.86
2019-05-20T02:21:59.878Z,98360.42
2019-05-20T02:24:29.257Z,98358.63
2019-05-20T02:26:58.470Z,98362.07
2019-05-20T02:29:27.704Z,98347.22
2019-05-20T02:31:57.137Z,98346.10
2019-05-20T02:34:26.571Z,98348.72
2019-05-20T02:36:55.722Z,98346.44
2019-05-20T02:39:26.722Z,98352.30
2019-05-20T02:41:55.760Z,98351.33
2019-05-20T02:44:24.923Z,98352.79
2019-05-20T02:46:54.108Z,98361.44
2019-05-20T02:49:23.301Z,98360.62
2019-05-20T02:51:52.518Z,98357.19
2019-05-20T02:54:21.837Z,98358.49
2019-05-20T02:56:51.037Z,98354.92
2019-05-20T02:59:20.171Z,98350.03
2019-05-20T03:01:49.367Z,98347.91
2019-05-20T03:04:18.588Z,98349.05
2019-05-20T03:06:47.751Z,98351.48
2019-05-20T03:09:16.917Z,98348.05
2019-05-20T03:11:46.113Z,98349.36
2019-05-20T03:14:15.510Z,98351.67
2019-05-20T03:16:44.732Z,98352.30
2019-05-20T03:19:14.080Z,98363.37
2019-05-20T03:21:43.247Z,98365.36
2019-05-20T03:24:12.731Z,98371.88
2019-05-20T03:26:42.128Z,98375.16
2019-05-20T03:29:11.305Z,98370.42
2019-05-20T03:31:40.561Z,98367.97
2019-05-20T03:34:09.991Z,98361.92
2019-05-20T03:36:39.340Z,98360.80
2019-05-20T03:39:08.482Z,98355.09
2019-05-20T03:41:37.659Z,98364.23
2019-05-20T03:44:06.920Z,98369.76
2019-05-20T03:46:36.088Z,98366.81
2019-05-20T03:49:05.336Z,98363.56
2019-05-20T03:51:34.488Z,98364.53
2019-05-20T03:54:03.607Z,98364.86
2019-05-20T03:56:33.066Z,98369.27
2019-05-20T03:59:02.211Z,98367.63
2019-05-20T04:01:31.498Z,98365.64
2019-05-20T04:04:00.794Z,98373.33
2019-05-20T04:06:30.115Z,98369.56
2019-05-20T04:08:59.433Z,98366.32
2019-05-20T04:11:28.619Z,98372.69
2019-05-20T04:13:57.876Z,98360.28
2019-05-20T04:16:27.267Z,98369.89
2019-05-20T04:18:56.766Z,98369.73
2019-05-20T04:21:25.899Z,98372.50
2019-05-20T04:23:55.077Z,98371.39
2019-05-20T04:26:24.256Z,98369.75
2019-05-20T04:28:53.532Z,98372.02
2019-05-20T04:31:22.694Z,98363.34
2019-05-20T04:33:52.026Z,98369.39
2019-05-20T04:36:21.171Z,98367.41
2019-05-20T04:38:50.335Z,98373.64
2019-05-20T04:41:19.652Z,98375.59
2019-05-20T04:43:49.202Z,98367.61
2019-05-20T04:46:18.588Z,98368.91
2019-05-20T04:48:47.771Z,98363.86
2019-05-20T04:51:16.978Z,98367.14
2019-05-20T04:53:46.475Z,98370.23
2019-05-20T04:56:16.227Z,98374.64
2019-05-20T04:58:45.635Z,98379.36
2019-05-20T05:01:14.785Z,98381.17
2019-05-20T05:03:44.134Z,98378.06
2019-05-20T05:06:13.455Z,98376.27
2019-05-20T05:08:42.612Z,98377.39
2019-05-20T05:11:11.759Z,98376.73
2019-05-20T05:13:40.922Z,98374.77
2019-05-20T05:16:10.385Z,98380.48
2019-05-20T05:18:40.018Z,98378.55
2019-05-20T05:21:09.321Z,98376.91
2019-05-20T05:23:38.635Z,98377.86
2019-05-20T05:26:07.942Z,98378.64
2019-05-20T05:28:37.455Z,98386.47
2019-05-20T05:31:06.669Z,98393.13
2019-05-20T05:33:35.853Z,98393.13
2019-05-20T05:36:04.958Z,98398.16
2019-05-20T05:38:34.462Z,98401.44
2019-05-20T05:41:03.650Z,98397.09
2019-05-20T05:43:32.728Z,98402.90
2019-05-20T05:46:02.034Z,98402.90
2019-05-20T05:48:31.176Z,98396.85
2019-05-20T05:51:00.325Z,98401.89
2019-05-20T05:53:29.653Z,98406.61
2019-05-20T05:55:58.822Z,98409.41
2019-05-20T05:58:28.014Z,98409.41
2019-05-20T06:00:57.198Z,98419.00
2019-05-20T06:03:26.413Z,98419.00
2019-05-20T06:06:10.721Z,98422.16
2019-05-20T06:08:26.475Z,98415.98
2019-05-20T06:10:55.667Z,98412.56
2019-05-20T06:13:24.882Z,98410.68
2019-05-20T06:15:54.750Z,98413.03
2019-05-20T06:18:23.908Z,98416.24
2019-05-20T06:20:53.078Z,98411.36
2019-05-20T06:23:22.257Z,98419.77
2019-05-20T06:25:51.476Z,98416.92
2019-05-20T06:28:20.664Z,98412.22
2019-05-20T06:30:49.880Z,98419.61
2019-05-20T06:33:19.015Z,98425.33
2019-05-20T06:35:48.367Z,98420.63
2019-05-20T06:38:38.647Z,98426.06
2019-05-20T06:41:08.283Z,98430.75
2019-05-20T06:43:37.428Z,98428.91
2019-05-20T06:46:06.605Z,98430.30
2019-05-20T06:48:35.950Z,98434.73
2019-05-20T06:51:05.088Z,98431.30
2019-05-20T06:53:34.462Z,98435.57
2019-05-20T06:56:03.629Z,98439.48
2019-05-20T06:58:32.770Z,98440.30
2019-05-20T07:01:02.263Z,98443.83
2019-05-20T07:03:31.811Z,98436.95
2019-05-20T07:06:01.109Z,98439.01
2019-05-20T07:08:30.314Z,98433.98
2019-05-20T07:10:59.445Z,98435.15
2019-05-20T07:13:28.745Z,98442.14
2019-05-20T07:15:57.947Z,98441.18
2019-05-20T07:18:27.599Z,98439.53
2019-05-20T07:20:56.833Z,98447.09
2019-05-20T07:23:26.027Z,98453.23
2019-05-20T07:25:55.240Z,98452.81
2019-05-20T07:28:24.459Z,98446.37
2019-05-20T07:30:53.777Z,98454.25
2019-05-20T07:33:23.114Z,98447.41
2019-05-20T07:35:52.567Z,98448.31
2019-05-20T07:38:21.812Z,98447.62
2019-05-20T07:40:51.039Z,98443.00
2019-05-20T07:43:20.634Z,98437.51
2019-05-20T07:45:49.971Z,98438.82
2019-05-20T07:48:19.498Z,98434.48
2019-05-20T07:50:49.349Z,98431.81
2019-05-20T07:53:19.641Z,98444.84
2019-05-20T07:56:00.723Z,98446.95
2019-05-20T07:58:33.832Z,98446.67
2019-05-20T08:01:03.245Z,98453.02
2019-05-20T08:03:32.495Z,98440.05
2019-05-20T08:06:01.682Z,98448.57
2019-05-20T08:08:30.953Z,98447.53
2019-05-20T08:11:00.056Z,98447.38
2019-05-20T08:13:29.361Z,98449.45
2019-05-20T08:15:58.537Z,98451.38
2019-05-20T08:18:27.885Z,98455.81
2019-05-20T08:20:57.174Z,98456.30
2019-05-20T08:23:26.464Z,98454.46
2019-05-20T08:25:55.627Z,98453.67
2019-05-20T08:28:24.905Z,98459.33
2019-05-20T08:30:54.046Z,98460.02
2019-05-20T08:33:23.183Z,98461.26
2019-05-20T08:35:52.586Z,98460.97
2019-05-20T08:38:21.729Z,98457.39
2019-05-20T08:40:51.002Z,98460.46
2019-05-20T08:43:20.227Z,98469.70
2019-05-20T08:45:49.398Z,98478.42
2019-05-20T08:48:18.489Z,98483.95
2019-05-20T08:50:47.927Z,98482.66
2019-05-20T08:53:17.052Z,98484.41
2019-05-20T08:55:46.283Z,98496.15
2019-05-20T08:58:15.937Z,98489.36
2019-05-20T09:00:45.197Z,98493.20
2019-05-20T09:03:14.426Z,98497.33
2019-05-20T09:05:43.677Z,98492.36
2019-05-20T09:08:12.811Z,98492.78
2019-05-20T09:10:41.982Z,98491.54
2019-05-20T09:13:11.108Z,98493.18
2019-05-20T09:15:40.512Z,98496.73
2019-05-20T09:18:09.832Z,98493.29
2019-05-20T09:20:39.001Z,98495.54
2019-05-20T09:23:08.234Z,98491.61
2019-05-20T09:25:37.465Z,98494.72
2019-05-20T09:28:06.621Z,98492.92
2019-05-20T09:30:35.810Z,98490.30
2019-05-20T09:33:04.978Z,98494.87
2019-05-20T09:35:34.292Z,98496.80
2019-05-20T09:38:18.304Z,98495.88
2019-05-20T09:40:39.471Z,98492.88
2019-05-20T09:43:08.795Z,98491.33
2019-05-20T09:45:37.947Z,98491.33
2019-05-20T09:48:08.551Z,98493.82
2019-05-20T09:50:37.677Z,98497.13
2019-05-20T09:53:07.741Z,98500.21
2019-05-20T09:55:37.597Z,98500.64
2019-05-20T09:58:07.475Z,98495.88
2019-05-20T10:00:37.001Z,98495.73
2019-05-20T10:03:07.797Z,98501.27
2019-05-20T10:05:37.840Z,98499.59
2019-05-20T10:08:07.541Z,98495.23
2019-05-20T10:10:37.021Z,98494.79
2019-05-20T10:13:06.961Z,98492.20
2019-05-20T10:15:36.496Z,98497.25
2019-05-20T10:18:06.024Z,98497.95
2019-05-20T10:20:35.186Z,98502.25
2019-05-20T10:23:04.346Z,98496.52
2019-05-20T10:25:33.646Z,98504.05
2019-05-20T10:28:02.813Z,98505.06
2019-05-20T10:30:31.951Z,98499.26
2019-05-20T10:33:01.087Z,98502.78
2019-05-20T10:35:30.220Z,98492.73
2019-05-20T10:37:59.449Z,98500.85
2019-05-20T10:40:28.753Z,98508.59
2019-05-20T10:42:57.907Z,98504.53
2019-05-20T10:45:27.229Z,98504.83
2019-05-20T10:47:56.579Z,98507.32
2019-05-20T10:50:25.908Z,98508.53
2019-05-20T10:52:55.193Z,98511.45
2019-05-20T10:55:24.411Z,98519.97
2019-05-20T10:57:53.599Z,98513.54
2019-05-20T11:00:22.964Z,98517.91
2019-05-20T11:02:52.172Z,98517.64
2019-05-20T11:05:21.538Z,98525.03
2019-05-20T11:07:50.860Z,98527.48
2019-05-20T11:10:20.441Z,98533.11
2019-05-20T11:12:49.815Z,98538.16
2019-05-20T11:15:19.062Z,98534.39
2019-05-20T11:17:48.213Z,98536.80
2019-05-20T11:20:17.650Z,98531.13
2019-05-20T11:22:47.162Z,98534.45
2019-05-20T11:25:17.148Z,98529.41
2019-05-20T11:27:46.285Z,98528.20
2019-05-20T11:30:15.658Z,98533.31
2019-05-20T11:32:44.906Z,98532.78
2019-05-20T11:35:14.990Z,98534.31
2019-05-20T11:37:44.315Z,98528.66
2019-05-20T11:40:14.575Z,98524.30
2019-05-20T11:42:43.986Z,98523.45
2019-05-20T11:45:14.447Z,98528.65
2019-05-20T11:47:43.686Z,98525.95
2019-05-20T11:50:14.612Z,98523.93
2019-05-20T11:52:43.875Z,98525.19
2019-05-20T11:55:13.677Z,98523.77
2019-05-20T11:57:42.848Z,98526.88
2019-05-20T12:00:12.729Z,98531.44
2019-05-20T12:02:41.900Z,98525.01
2019-05-20T12:05:11.970Z,98531.48
2019-05-20T12:07:41.110Z,98525.66
2019-05-20T12:10:11.229Z,98534.34
2019-05-20T12:12:40.428Z,98529.84
2019-05-20T12:15:10.154Z,98532.52
2019-05-20T12:17:39.331Z,98534.14
2019-05-20T12:20:11.776Z,98535.44
2019-05-20T12:22:40.379Z,98532.58
2019-05-20T12:25:10.063Z,98535.55
2019-05-20T12:27:39.266Z,98531.52
2019-05-20T12:30:10.295Z,98534.00
2019-05-20T12:32:39.537Z,98533.00
2019-05-20T12:35:09.491Z,98535.49
2019-05-20T12:37:38.890Z,98529.31
2019-05-20T12:40:09.019Z,98529.22
2019-05-20T12:42:38.449Z,98528.22
2019-05-20T12:45:08.852Z,98525.91
2019-05-20T12:47:38.016Z,98523.45
2019-05-20T12:50:08.112Z,98518.93
2019-05-20T12:52:37.543Z,98516.69
2019-05-20T12:55:09.486Z,98514.93
2019-05-20T12:57:37.828Z,98509.56
2019-05-20T13:00:07.718Z,98518.01
2019-05-20T13:02:36.927Z,98507.13
2019-05-20T13:05:06.488Z,98506.34
2019-05-20T13:07:35.990Z,98508.92
2019-05-20T13:10:26.073Z,98503.01
2019-05-20T13:12:37.151Z,98508.29
2019-05-20T13:15:06.668Z,98507.00
2019-05-20T13:17:36.231Z,98501.20
2019-05-20T13:20:05.801Z,98508.66
2019-05-20T13:22:34.992Z,98501.64
2019-05-20T13:25:04.199Z,98496.52
2019-05-20T13:27:33.457Z,98501.88
2019-05-20T13:30:02.620Z,98495.06
2019-05-20T13:32:31.863Z,98497.14
2019-05-20T13:35:01.076Z,98499.27
2019-05-20T13:37:30.346Z,98492.91
2019-05-20T13:40:02.831Z,98491.52
2019-05-20T13:42:30.402Z,98489.92
2019-05-20T13:44:59.546Z,98491.33
2019-05-20T13:47:28.736Z,98489.98
2019-05-20T13:49:58.102Z,98487.08
2019-05-20T13:52:27.303Z,98485.84
2019-05-20T13:54:56.457Z,98496.48
2019-05-20T13:57:25.635Z,98485.55
2019-05-20T13:59:54.881Z,98490.80
2019-05-20T14:02:24.227Z,98489.84
2019-05-20T14:04:53.415Z,98488.03
2019-05-20T14:07:22.598Z,98483.72
2019-05-20T14:09:51.916Z,98484.09
2019-05-20T14:12:21.344Z,98483.27
2019-05-20T14:14:50.738Z,98479.95
2019-05-20T14:17:20.115Z,98484.14
2019-05-20T14:19:49.611Z,98473.71
2019-05-20T14:22:18.852Z,98471.73
2019-05-20T14:24:48.090Z,98478.58
2019-05-20T14:27:17.330Z,98475.34
2019-05-20T14:29:46.715Z,98481.31
2019-05-20T14:32:15.873Z,98481.38
2019-05-20T14:34:45.053Z,98482.25
2019-05-20T14:37:14.225Z,98490.31
2019-05-20T14:39:43.588Z,98490.42
2019-05-20T14:42:12.880Z,98494.90
2019-05-20T14:44:42.213Z,98494.63
2019-05-20T14:47:11.387Z,98498.95
2019-05-20T14:49:40.547Z,98505.06
2019-05-20T14:52:10.088Z,98514.32
2019-05-20T14:54:39.435Z,98508.98
2019-05-20T14:57:08.842Z,98513.63
2019-05-20T14:59:38.009Z,98519.29
2019-05-20T15:02:07.187Z,98516.78
2019-05-20T15:04:37.148Z,98517.80
2019-05-20T15:07:06.427Z,98516.58
2019-05-20T15:09:35.619Z,98516.72
2019-05-20T15:12:04.958Z,98516.14
2019-05-20T15:14:34.108Z,98511.02
2019-05-20T15:17:03.468Z,98512.52
2019-05-20T15:19:32.899Z,98519.34
2019-05-20T15:22:02.529Z,98523.47
2019-05-20T15:24:31.758Z,98528.41
2019-05-20T15:27:01.081Z,98533.06
2019-05-20T15:29:30.340Z,98538.17
2019-05-20T15:31:59.745Z,98539.03
2019-05-20T15:34:29.220Z,98543.17
2019-05-20T15:36:58.452Z,98534.80
2019-05-20T15:39:27.655Z,98547.88
2019-05-20T15:41:57.235Z,98553.83
2019-05-20T15:44:26.809Z,98556.34
2019-05-20T15:46:56.009Z,98555.53
2019-05-20T15:49:25.347Z,98550.34
2019-05-20T15:51:54.666Z,98553.23
2019-05-20T15:54:23.860Z,98558.59
2019-05-20T15:56:53.759Z,98558.61
2019-05-20T15:59:22.931Z,98562.21
2019-05-20T16:01:52.230Z,98556.94
2019-05-20T16:04:21.518Z,98560.48
2019-05-20T16:06:50.662Z,98558.12
2019-05-20T16:09:20.064Z,98558.45
2019-05-20T16:11:49.431Z,98563.58
2019-05-20T16:14:18.841Z,98561.00
2019-05-20T16:16:48.123Z,98557.27
2019-05-20T16:19:17.330Z,98558.05
2019-05-20T16:21:47.879Z,98559.08
2019-05-20T16:24:17.259Z,98555.80
2019-05-20T16:26:46.695Z,98560.24
2019-05-20T16:29:15.971Z,98558.94
2019-05-20T16:31:45.186Z,98564.46
2019-05-20T16:34:14.440Z,98557.48
2019-05-20T16:36:44.091Z,98558.14
2019-05-20T16:39:13.524Z,98565.23
2019-05-20T16:41:42.861Z,98569.44
2019-05-20T16:44:12.130Z,98569.74
2019-05-20T16:46:41.368Z,98578.07
2019-05-20T16:49:10.692Z,98575.68
2019-05-20T16:51:39.993Z,98574.41
2019-05-20T16:54:09.191Z,98578.02
2019-05-20T16:56:38.441Z,98571.03
2019-05-20T16:59:07.647Z,98579.41
2019-05-20T17:01:45.974Z,98578.23
2019-05-20T17:04:07.835Z,98571.83
2019-05-20T17:06:37.080Z,98567.55
2019-05-20T17:09:06.766Z,98573.98
2019-05-20T17:11:36.032Z,98572.33
2019-05-20T17:14:05.180Z,98573.34
2019-05-20T17:16:34.677Z,98574.47
2019-05-20T17:19:03.884Z,98569.42
2019-05-20T17:21:33.155Z,98573.34
2019-05-20T17:24:02.375Z,98567.92
2019-05-20T17:26:31.717Z,98571.51
2019-05-20T17:29:00.990Z,98573.51
2019-05-20T17:31:30.976Z,98572.56
2019-05-20T17:34:07.071Z,98577.83
2019-05-20T17:36:36.414Z,98585.17
2019-05-20T17:39:07.153Z,98590.25
2019-05-20T17:41:36.342Z,98591.23
2019-05-20T17:44:05.587Z,98597.79
2019-05-20T17:46:34.784Z,98598.60
2019-05-20T17:49:03.984Z,98596.33
2019-05-20T17:51:33.268Z,98602.53
2019-05-20T17:54:02.480Z,98604.34
2019-05-20T17:56:31.660Z,98607.77
2019-05-20T17:59:00.905Z,98606.61
2019-05-20T18:01:30.331Z,98606.28
2019-05-20T18:03:59.613Z,98609.56
2019-05-20T18:06:28.940Z,98604.50
2019-05-20T18:09:00.355Z,98604.19
2019-05-20T18:11:30.903Z,98602.69
2019-05-20T18:14:00.400Z,98606.80
2019-05-20T18:16:29.918Z,98610.53
2019-05-20T18:18:59.136Z,98606.80
2019-05-20T18:21:28.431Z,98608.26
2019-05-20T18:23:57.679Z,98596.49
2019-05-20T18:26:26.867Z,98599.94
2019-05-20T18:28:56.212Z,98594.38
2019-05-20T18:31:32.570Z,98595.88
2019-05-20T18:33:56.587Z,98592.59
2019-05-20T18:36:26.027Z,98590.64
2019-05-20T18:38:55.461Z,98586.06
2019-05-20T18:41:24.721Z,98595.55
2019-05-20T18:43:53.984Z,98587.36
2019-05-20T18:46:23.262Z,98602.58
2019-05-20T18:48:52.529Z,98608.48
2019-05-20T18:51:21.759Z,98605.68
2019-05-20T18:53:50.995Z,98605.53
2019-05-20T18:56:20.479Z,98608.81
2019-05-20T18:58:49.668Z,98597.53
2019-05-20T19:01:19.712Z,98609.63
2019-05-20T19:03:49.077Z,98613.22
2019-05-20T19:06:18.248Z,98613.89
2019-05-20T19:08:47.432Z,98620.42
2019-05-20T19:11:16.736Z,98619.27
2019-05-20T19:13:46.294Z,98618.11
2019-05-20T19:16:15.871Z,98626.95
2019-05-20T19:18:45.337Z,98626.95
2019-05-20T19:21:14.578Z,98639.02
2019-05-20T19:23:43.778Z,98634.80
2019-05-20T19:26:24.348Z,98630.54
2019-05-20T19:28:44.231Z,98634.61
2019-05-20T19:31:13.903Z,98653.73
2019-05-20T19:33:43.178Z,98643.94
2019-05-20T19:36:13.971Z,98644.58
2019-05-20T19:38:43.244Z,98645.06
2019-05-20T19:41:12.466Z,98645.06
2019-05-20T19:43:41.895Z,98651.78
2019-05-20T19:46:11.410Z,98666.45
2019-05-20T19:48:40.848Z,98663.16
2019-05-20T19:51:10.302Z,98663.16
2019-05-20T19:53:39.956Z,98663.80
2019-05-20T19:56:09.294Z,98668.70
2019-05-20T19:58:38.466Z,98676.04
2019-05-20T20:01:07.784Z,98667.21
2019-05-20T20:03:37.089Z,98667.21
2019-05-20T20:06:06.601Z,98676.30
2019-05-20T20:08:36.408Z,98666.51
2019-05-20T20:11:06.011Z,98671.39
2019-05-20T20:13:35.315Z,98675.44
2019-05-20T20:16:05.130Z,98673.48
2019-05-20T20:18:34.509Z,98678.01
2019-05-20T20:21:03.885Z,98678.63
2019-05-20T20:23:33.082Z,98676.18
2019-05-20T20:26:02.653Z,98677.48
2019-05-20T20:28:31.959Z,98673.23
2019-05-20T20:31:01.335Z,98683.17
2019-05-20T20:33:30.618Z,98680.88
2019-05-20T20:35:59.852Z,98682.33
2019-05-20T20:38:29.052Z,98684.11
2019-05-20T20:40:58.344Z,98677.22
2019-05-20T20:43:27.685Z,98681.14
2019-05-20T20:45:56.887Z,98683.44
2019-05-20T20:48:26.093Z,98681.14
2019-05-20T20:50:55.394Z,98684.27
2019-05-20T20:53:24.624Z,98686.88
2019-05-20T20:55:53.869Z,98688.68
2019-05-20T20:58:23.111Z,98695.80
2019-05-20T21:00:52.383Z,98693.91
2019-05-20T21:03:21.600Z,98694.05
2019-05-20T21:05:50.794Z,98693.39
2019-05-20T21:08:20.040Z,98699.41
2019-05-20T21:10:49.224Z,98694.70
2019-05-20T21:13:18.470Z,98697.64
2019-05-20T21:15:47.643Z,98694.53
2019-05-20T21:18:16.800Z,98702.36
2019-05-20T21:20:46.156Z,98707.86
2019-05-20T21:23:16.276Z,98712.74
2019-05-20T21:25:45.518Z,98705.11
2019-05-20T21:28:14.752Z,98707.50
2019-05-20T21:30:44.106Z,98702.79
2019-05-20T21:33:13.430Z,98706.11
2019-05-20T21:35:45.292Z,98707.41
2019-05-20T21:38:13.640Z,98708.23
2019-05-20T21:40:42.822Z,98712.97
2019-05-20T21:43:12.071Z,98705.91
2019-05-20T21:45:41.527Z,98707.05
2019-05-20T21:48:10.950Z,98712.60
2019-05-20T21:50:40.116Z,98711.64
2019-05-20T21:53:09.329Z,98717.96
2019-05-20T21:55:38.764Z,98716.12
2019-05-20T21:58:07.954Z,98713.03
2019-05-20T22:00:48.663Z,98716.77
2019-05-20T22:03:24.535Z,98722.13
2019-05-20T22:05:49.821Z,98721.48
2019-05-20T22:08:19.081Z,98722.10
2019-05-20T22:10:48.313Z,98722.13
2019-05-20T22:13:17.610Z,98724.74
2019-05-20T22:15:46.861Z,98727.01
2019-05-20T22:18:16.040Z,98725.84
2019-05-20T22:20:45.246Z,98724.20
2019-05-20T22:23:29.089Z,98728.91
2019-05-20T22:25:58.247Z,98723.72
2019-05-20T22:28:27.555Z,98720.97
2019-05-20T22:30:56.861Z,98719.02
2019-05-20T22:33:40.227Z,98715.44
2019-05-20T22:35:57.129Z,98713.94
2019-05-20T22:38:26.397Z,98711.02
2019-05-20T22:40:55.639Z,98707.70
2019-05-20T22:43:24.808Z,98718.33
2019-05-20T22:45:54.115Z,98716.72
2019-05-20T22:48:23.791Z,98720.15
2019-05-20T22:50:53.235Z,98717.34
2019-05-20T22:53:22.422Z,98723.69
2019-05-20T22:55:51.660Z,98726.61
2019-05-20T22:58:20.970Z,98728.91
2019-05-20T23:00:50.215Z,98736.91
2019-05-20T23:03:19.679Z,98731.72
2019-05-20T23:05:48.846Z,98727.95
2019-05-20T23:08:18.000Z,98726.95
2019-05-20T23:10:47.167Z,98728.08
2019-05-20T23:13:16.426Z,98725.34
2019-05-20T23:15:45.614Z,98722.55
2019-05-20T23:18:14.773Z,98729.90
2019-05-20T23:20:44.025Z,98730.07
2019-05-20T23:23:13.210Z,98728.59
2019-05-20T23:25:42.361Z,98725.02
2019-05-20T23:28:11.531Z,98723.61
2019-05-20T23:30:40.812Z,98724.89
2019-05-20T23:33:10.046Z,98727.83
2019-05-20T23:35:39.209Z,98724.55
2019-05-20T23:38:08.405Z,98732.23
2019-05-20T23:40:37.506Z,98733.70
2019-05-20T23:43:06.705Z,98725.81
2019-05-20T23:45:36.249Z,98727.77
2019-05-20T23:48:05.412Z,98726.02
2019-05-20T23:50:34.560Z,98718.02
2019-05-20T23:53:03.857Z,98728.94
2019-05-20T23:55:33.004Z,98722.59
2019-05-20T23:58:02.198Z,98722.92
